Fairview Hill, Kentucky
Current Conditions -  °F | °C
As of 4:51 PM on Friday 31 Oct 2014 (Local Time) from KHTS Reporting Station
Light Rain Light Rain  
Wind Chill: 44°   Ceiling: 2600
Heat Index: 44°   Visibility: 6mi
Dew Point: 42°   Wind: 3mph
Humidity: 93%   Direction: 200°SSW
Pressure: 29.86"   Gusts: NA
Location:  38.234°N, 82.9152°W
Report Text: KHTS 312051Z 20003KT 6SM -RA BR BKN026 OVC033 07/06 A2986 RMK AO2 SLP113 P0002 60004 T00670056 56014
Loading
Personal Weather Stations






























Interactive Weather Map
Tropical Storm Tracking
New forecast layout! Learn more

10-Day Weather Forecast

Advertisements
Track Severe Weather on mobile